createdAt,value
2022-10-25T00:01:21.418Z,99761.31
2022-10-25T00:03:49.329Z,99757.84
2022-10-25T00:06:18.809Z,99760.28
2022-10-25T00:08:46.577Z,99758.00
2022-10-25T00:11:19.218Z,99755.88
2022-10-25T00:13:46.933Z,99756.97
2022-10-25T00:16:16.222Z,99764.50
2022-10-25T00:18:43.916Z,99763.56
2022-10-25T00:21:11.674Z,99759.16
2022-10-25T00:23:41.034Z,99760.22
2022-10-25T00:26:10.653Z,99752.22
2022-10-25T00:28:39.793Z,99757.25
2022-10-25T00:31:09.421Z,99747.75
2022-10-25T00:33:39.408Z,99757.91
2022-10-25T00:36:08.337Z,99750.31
2022-10-25T00:38:36.866Z,99753.25
2022-10-25T00:41:07.391Z,99748.03
2022-10-25T00:43:38.141Z,99754.47
2022-10-25T00:46:12.087Z,99754.97
2022-10-25T00:48:40.355Z,99752.06
2022-10-25T00:51:08.248Z,99765.38
2022-10-25T00:53:38.689Z,99759.50
2022-10-25T00:56:14.826Z,99757.81
2022-10-25T00:58:45.593Z,99761.34
2022-10-25T01:01:15.915Z,99771.63
2022-10-25T01:03:48.572Z,99775.69
2022-10-25T01:06:22.378Z,99769.69
2022-10-25T01:08:53.082Z,99773.44
2022-10-25T01:11:22.345Z,99779.31
2022-10-25T01:13:50.913Z,99777.41
2022-10-25T01:16:27.753Z,99780.78
2022-10-25T01:19:05.092Z,99779.50
2022-10-25T01:21:48.086Z,99776.81
2022-10-25T01:25:04.477Z,99785.50
2022-10-25T01:27:46.030Z,99783.44
2022-10-25T01:30:19.964Z,99785.66
2022-10-25T01:33:10.475Z,99785.72
2022-10-25T01:35:43.710Z,99791.63
2022-10-25T01:38:24.196Z,99782.28
2022-10-25T01:40:59.026Z,99783.19
2022-10-25T01:43:35.680Z,99782.88
2022-10-25T01:46:12.856Z,99772.00
2022-10-25T01:48:46.744Z,99768.72
2022-10-25T01:51:17.261Z,99776.41
2022-10-25T01:53:46.843Z,99771.09
2022-10-25T01:56:19.644Z,99765.03
2022-10-25T01:59:01.903Z,99766.78
2022-10-25T02:04:20.396Z,99781.03
2022-10-25T02:06:56.476Z,99763.78
2022-10-25T02:09:31.040Z,99779.09
2022-10-25T02:12:01.675Z,99776.63
2022-10-25T02:14:35.523Z,99780.00
2022-10-25T02:17:08.703Z,99772.47
2022-10-25T02:19:40.888Z,99776.69
2022-10-25T02:22:10.200Z,99763.16
2022-10-25T02:24:39.692Z,99770.31
2022-10-25T02:27:09.421Z,99769.44
2022-10-25T02:29:38.884Z,99767.69
2022-10-25T02:32:06.867Z,99761.22
2022-10-25T02:34:35.357Z,99765.00
2022-10-25T02:37:04.452Z,99758.72
2022-10-25T02:39:32.634Z,99767.16
2022-10-25T02:42:02.342Z,99762.97
2022-10-25T02:44:30.290Z,99769.75
2022-10-25T02:46:58.028Z,99773.19
2022-10-25T02:49:25.828Z,99776.72
2022-10-25T02:51:53.607Z,99775.03
2022-10-25T02:58:31.785Z,99775.94
2022-10-25T03:01:00.134Z,99775.50
2022-10-25T03:03:28.584Z,99774.00
2022-10-25T03:05:56.404Z,99782.22
2022-10-25T03:08:24.797Z,99777.09
2022-10-25T03:10:53.071Z,99785.44
2022-10-25T03:13:21.105Z,99779.25
2022-10-25T03:15:50.352Z,99791.88
2022-10-25T03:18:18.621Z,99800.88
2022-10-25T03:20:46.658Z,99794.91
2022-10-25T03:23:14.335Z,99796.75
2022-10-25T03:25:42.273Z,99794.53
2022-10-25T03:28:10.173Z,99790.69
2022-10-25T03:30:37.870Z,99787.50
2022-10-25T03:33:06.887Z,99796.00
2022-10-25T03:35:34.639Z,99792.81
2022-10-25T03:38:02.375Z,99804.19
2022-10-25T03:40:30.080Z,99803.97
2022-10-25T03:42:57.850Z,99796.66
2022-10-25T03:45:25.618Z,99806.22
2022-10-25T03:47:53.422Z,99798.31
2022-10-25T03:50:23.086Z,99813.06
2022-10-25T03:52:51.540Z,99812.16
2022-10-25T03:55:19.672Z,99814.63
2022-10-25T03:57:47.790Z,99809.28
2022-10-25T04:00:16.638Z,99814.53
2022-10-25T04:02:44.583Z,99809.84
2022-10-25T04:05:12.386Z,99801.50
2022-10-25T04:07:41.630Z,99809.56
2022-10-25T04:10:10.214Z,99819.53
2022-10-25T04:12:38.043Z,99828.41
2022-10-25T04:15:06.564Z,99825.66
2022-10-25T04:17:34.266Z,99824.78
2022-10-25T04:20:01.940Z,99820.75
2022-10-25T04:22:29.671Z,99822.13
2022-10-25T04:24:58.848Z,99819.00
2022-10-25T04:27:26.631Z,99820.84
2022-10-25T04:29:54.354Z,99813.31
2022-10-25T04:32:22.118Z,99816.81
2022-10-25T04:34:49.976Z,99810.25
2022-10-25T04:37:17.617Z,99814.53
2022-10-25T04:39:45.330Z,99812.47
2022-10-25T04:42:14.326Z,99812.84
2022-10-25T04:44:42.015Z,99818.25
2022-10-25T04:47:09.795Z,99809.81
2022-10-25T04:49:37.574Z,99818.72
2022-10-25T04:52:05.437Z,99812.47
2022-10-25T04:54:33.198Z,99817.97
2022-10-25T04:57:00.897Z,99817.34
2022-10-25T04:59:30.088Z,99824.31
2022-10-25T05:01:57.803Z,99831.31
2022-10-25T05:04:25.607Z,99832.59
2022-10-25T05:06:53.402Z,99828.22
2022-10-25T05:09:21.136Z,99832.94
2022-10-25T05:11:48.950Z,99837.63
2022-10-25T05:14:16.806Z,99839.63
2022-10-25T05:16:45.915Z,99841.19
2022-10-25T05:19:13.730Z,99843.66
2022-10-25T05:21:41.598Z,99844.94
2022-10-25T05:24:09.528Z,99849.63
2022-10-25T05:26:37.372Z,99848.75
2022-10-25T05:29:09.965Z,99838.91
2022-10-25T05:31:38.657Z,99851.06
2022-10-25T05:34:08.028Z,99855.06
2022-10-25T05:36:35.779Z,99845.06
2022-10-25T05:39:03.613Z,99843.59
2022-10-25T05:41:34.614Z,99840.13
2022-10-25T05:44:05.100Z,99847.81
2022-10-25T05:46:33.047Z,99854.56
2022-10-25T05:49:01.793Z,99854.69
2022-10-25T05:51:36.857Z,99855.06
2022-10-25T05:54:07.042Z,99855.06
2022-10-25T05:56:36.059Z,99857.94
2022-10-25T05:59:07.574Z,99862.31
2022-10-25T06:01:36.577Z,99854.94
2022-10-25T06:04:04.521Z,99863.91
2022-10-25T06:06:34.066Z,99861.81
2022-10-25T06:09:02.883Z,99864.16
2022-10-25T06:11:31.888Z,99857.31
2022-10-25T06:13:59.902Z,99856.88
2022-10-25T06:16:27.783Z,99867.03
2022-10-25T06:18:55.810Z,99860.19
2022-10-25T06:21:26.542Z,99866.88
2022-10-25T06:23:56.741Z,99867.97
2022-10-25T06:26:25.952Z,99867.88
2022-10-25T06:28:55.609Z,99869.63
2022-10-25T06:31:24.023Z,99873.19
2022-10-25T06:33:52.053Z,99877.59
2022-10-25T06:36:21.413Z,99881.53
2022-10-25T06:38:50.366Z,99887.50
2022-10-25T06:41:21.442Z,99885.56
2022-10-25T06:43:50.202Z,99882.44
2022-10-25T06:46:22.238Z,99889.31
2022-10-25T06:48:50.482Z,99883.75
2022-10-25T06:51:18.251Z,99885.91
2022-10-25T06:53:46.492Z,99892.31
2022-10-25T06:56:15.532Z,99894.56
2022-10-25T06:58:44.795Z,99893.16
2022-10-25T07:01:28.762Z,99903.03
2022-10-25T07:03:56.844Z,99902.94
2022-10-25T07:06:27.259Z,99894.19
2022-10-25T07:08:56.606Z,99893.34
2022-10-25T07:11:26.046Z,99895.06
2022-10-25T07:13:57.298Z,99903.31
2022-10-25T07:16:26.126Z,99904.56
2022-10-25T07:18:54.004Z,99898.47
2022-10-25T07:21:23.714Z,99899.63
2022-10-25T07:23:52.485Z,99908.69
2022-10-25T07:26:22.035Z,99908.34
2022-10-25T07:28:52.056Z,99908.97
2022-10-25T07:31:23.285Z,99920.25
2022-10-25T07:33:52.220Z,99919.75
2022-10-25T07:36:20.469Z,99927.59
2022-10-25T07:38:48.230Z,99926.63
2022-10-25T07:41:16.271Z,99935.31
2022-10-25T07:43:44.488Z,99941.25
2022-10-25T07:46:13.593Z,99939.91
2022-10-25T07:48:42.856Z,99934.38
2022-10-25T07:51:12.781Z,99950.00
2022-10-25T07:53:40.890Z,99947.84
2022-10-25T07:56:13.104Z,99947.53
2022-10-25T07:58:41.658Z,99944.09
2022-10-25T08:01:11.303Z,99945.72
2022-10-25T08:03:39.416Z,99955.59
2022-10-25T08:06:08.651Z,99956.31
2022-10-25T08:08:37.755Z,99968.28
2022-10-25T08:11:08.109Z,99965.41
2022-10-25T08:13:37.992Z,99973.16
2022-10-25T08:16:07.267Z,99966.81
2022-10-25T08:18:35.767Z,99964.13
2022-10-25T08:21:04.545Z,99977.72
2022-10-25T08:23:34.386Z,99982.38
2022-10-25T08:26:02.444Z,99976.28
2022-10-25T08:28:31.715Z,99981.56
2022-10-25T08:31:01.429Z,99980.31
2022-10-25T08:33:30.083Z,99983.41
2022-10-25T08:36:02.674Z,99983.38
2022-10-25T08:38:30.728Z,99981.03
2022-10-25T08:41:07.299Z,99981.78
2022-10-25T08:44:08.989Z,99975.06
2022-10-25T08:46:41.856Z,99969.13
2022-10-25T08:49:20.276Z,99973.44
2022-10-25T08:51:50.628Z,99979.63
2022-10-25T08:54:27.867Z,99971.59
2022-10-25T08:57:21.452Z,99976.56
2022-10-25T08:59:52.181Z,99964.06
2022-10-25T09:02:34.630Z,99968.84
2022-10-25T09:05:02.933Z,99962.84
2022-10-25T09:07:46.367Z,99972.41
2022-10-25T09:10:25.185Z,99969.28
2022-10-25T09:13:08.336Z,99973.59
2022-10-25T09:15:52.085Z,99963.59
2022-10-25T09:18:20.363Z,99960.50
2022-10-25T09:20:51.703Z,99962.41
2022-10-25T09:23:28.219Z,99966.88
2022-10-25T09:26:04.055Z,99968.38
2022-10-25T09:28:49.950Z,99967.06
2022-10-25T09:31:23.406Z,99966.31
2022-10-25T09:33:55.200Z,99976.13
2022-10-25T09:36:24.571Z,99972.88
2022-10-25T09:38:57.525Z,99968.03
2022-10-25T09:41:32.652Z,99979.91
2022-10-25T09:44:06.756Z,99979.84
2022-10-25T09:46:41.004Z,99978.38
2022-10-25T09:49:21.665Z,99980.72
2022-10-25T09:51:57.543Z,99985.47
2022-10-25T09:54:30.650Z,99982.31
2022-10-25T09:56:59.341Z,99983.66
2022-10-25T09:59:29.026Z,99982.47
2022-10-25T10:01:57.185Z,99985.34
2022-10-25T10:04:35.201Z,99977.69
2022-10-25T10:07:07.108Z,99973.84
2022-10-25T10:09:41.023Z,99985.69
2022-10-25T10:12:19.247Z,99985.44
2022-10-25T10:14:56.166Z,99985.50
2022-10-25T10:17:26.178Z,99980.75
2022-10-25T10:20:14.111Z,99993.00
2022-10-25T10:22:52.172Z,99985.84
2022-10-25T10:25:23.781Z,99998.91
2022-10-25T10:27:54.489Z,99983.94
2022-10-25T10:30:26.484Z,99983.84
2022-10-25T10:32:57.796Z,99979.59
2022-10-25T10:35:31.635Z,99976.44
2022-10-25T10:38:21.380Z,99981.09
2022-10-25T10:40:51.634Z,99965.84
2022-10-25T10:43:30.667Z,99972.91
2022-10-25T10:46:09.448Z,99973.53
2022-10-25T10:48:42.860Z,99963.72
2022-10-25T10:51:31.619Z,99973.78
2022-10-25T10:54:21.099Z,99970.84
2022-10-25T10:56:54.978Z,99973.94
2022-10-25T10:59:40.678Z,99962.16
2022-10-25T11:02:31.271Z,99976.22
2022-10-25T11:04:59.139Z,99967.41
2022-10-25T11:07:33.484Z,99975.31
2022-10-25T11:10:22.272Z,99976.00
2022-10-25T11:13:06.359Z,99980.63
2022-10-25T11:15:49.595Z,99971.78
2022-10-25T11:18:23.285Z,99978.31
2022-10-25T11:20:56.696Z,99972.25
2022-10-25T11:23:31.427Z,99983.75
2022-10-25T11:26:03.532Z,99975.72
2022-10-25T11:28:47.554Z,99977.09
2022-10-25T11:31:24.673Z,99975.72
2022-10-25T11:34:12.936Z,99984.78
2022-10-25T11:37:03.036Z,99982.31
2022-10-25T11:39:48.494Z,99984.75
2022-10-25T11:42:43.451Z,99972.09
2022-10-25T11:45:25.881Z,99969.34
2022-10-25T11:48:09.284Z,99984.69
2022-10-25T11:50:49.355Z,99983.69
2022-10-25T11:53:35.513Z,99987.53
2022-10-25T11:56:10.523Z,99985.31
2022-10-25T11:58:46.646Z,99983.47
2022-10-25T12:01:26.153Z,99990.84
2022-10-25T12:04:06.644Z,99981.03
2022-10-25T12:06:45.778Z,99983.34
2022-10-25T12:09:21.684Z,99984.66
2022-10-25T12:11:54.057Z,99981.38
2022-10-25T12:14:29.248Z,99976.66
2022-10-25T12:16:58.777Z,99970.44
2022-10-25T12:19:30.008Z,99977.34
2022-10-25T12:22:02.132Z,99977.63
2022-10-25T12:24:40.371Z,99980.50
2022-10-25T12:27:11.649Z,99973.94
2022-10-25T12:29:43.434Z,99964.22
2022-10-25T12:32:17.682Z,99962.09
2022-10-25T12:34:49.250Z,99952.78
2022-10-25T12:37:27.374Z,99961.91
2022-10-25T12:39:55.456Z,99963.78
2022-10-25T12:42:27.138Z,99958.66
2022-10-25T12:45:06.494Z,99958.88
2022-10-25T12:47:56.747Z,99968.34
2022-10-25T12:50:57.683Z,99942.16
2022-10-25T12:53:53.146Z,99945.16
2022-10-25T12:56:32.440Z,99945.84
2022-10-25T12:59:08.804Z,99946.41
2022-10-25T13:02:03.996Z,99939.66
2022-10-25T13:04:59.352Z,99940.66
2022-10-25T13:07:27.459Z,99940.22
2022-10-25T13:10:05.687Z,99932.13
2022-10-25T13:12:33.977Z,99930.75
2022-10-25T13:15:02.411Z,99932.41
2022-10-25T13:18:00.423Z,99933.22
2022-10-25T13:20:50.294Z,99926.16
2022-10-25T13:24:02.541Z,99925.91
2022-10-25T13:27:16.025Z,99910.50
2022-10-25T13:30:11.173Z,99916.47
2022-10-25T13:32:41.161Z,99919.28
2022-10-25T13:35:42.060Z,99910.66
2022-10-25T13:38:12.528Z,99912.09
2022-10-25T13:40:40.375Z,99910.97
2022-10-25T13:43:21.150Z,99916.22
2022-10-25T13:45:55.296Z,99920.09
2022-10-25T13:48:31.346Z,99915.25
2022-10-25T13:51:02.485Z,99915.63
2022-10-25T13:53:39.226Z,99909.28
2022-10-25T13:56:09.491Z,99910.44
2022-10-25T13:58:50.028Z,99909.34
2022-10-25T14:01:58.858Z,99908.59
2022-10-25T14:04:38.574Z,99910.59
2022-10-25T14:07:44.086Z,99910.28
2022-10-25T14:10:21.155Z,99905.00
2022-10-25T14:12:53.547Z,99895.38
2022-10-25T14:15:40.759Z,99903.47
2022-10-25T14:18:16.341Z,99902.09
2022-10-25T14:20:47.146Z,99893.78
2022-10-25T14:23:19.564Z,99897.28
2022-10-25T14:25:54.191Z,99891.75
2022-10-25T14:28:25.011Z,99897.03
2022-10-25T14:30:56.557Z,99888.63
2022-10-25T14:33:27.545Z,99895.50
2022-10-25T14:35:58.088Z,99892.34
2022-10-25T14:38:28.043Z,99890.47
2022-10-25T14:40:58.097Z,99890.34
2022-10-25T14:43:29.322Z,99891.06
2022-10-25T14:46:04.626Z,99893.88
2022-10-25T14:48:33.766Z,99890.38
2022-10-25T14:51:06.359Z,99890.00
2022-10-25T14:53:34.962Z,99888.97
2022-10-25T14:56:30.441Z,99895.00
2022-10-25T14:58:59.323Z,99885.56
2022-10-25T15:01:29.284Z,99876.75
2022-10-25T15:03:59.177Z,99886.69
2022-10-25T15:06:29.834Z,99881.19
2022-10-25T15:09:22.997Z,99877.41
2022-10-25T15:12:06.388Z,99892.63
2022-10-25T15:14:35.259Z,99883.16
2022-10-25T15:17:05.671Z,99881.78
2022-10-25T15:19:34.141Z,99887.72
2022-10-25T15:22:10.703Z,99883.66
2022-10-25T15:24:49.016Z,99887.84
2022-10-25T15:27:27.821Z,99886.06
2022-10-25T15:29:56.601Z,99884.22
2022-10-25T15:32:27.546Z,99878.22
2022-10-25T15:34:57.394Z,99883.09
2022-10-25T15:37:26.860Z,99884.81
2022-10-25T15:39:56.484Z,99882.91
2022-10-25T15:42:26.701Z,99892.22
2022-10-25T15:44:54.441Z,99888.84
2022-10-25T15:47:30.064Z,99885.94
2022-10-25T15:49:58.635Z,99887.34
2022-10-25T15:52:26.863Z,99888.00
2022-10-25T15:54:54.936Z,99884.16
2022-10-25T15:57:22.727Z,99880.69
2022-10-25T15:59:50.553Z,99880.03
2022-10-25T16:02:21.232Z,99883.13
2022-10-25T16:04:50.638Z,99880.34
2022-10-25T16:07:18.509Z,99888.00
2022-10-25T16:09:46.270Z,99882.72
2022-10-25T16:12:20.518Z,99881.06
2022-10-25T16:14:49.800Z,99876.44
2022-10-25T16:17:17.565Z,99878.00
2022-10-25T16:19:45.229Z,99873.75
2022-10-25T16:22:14.254Z,99864.28
2022-10-25T16:24:41.936Z,99860.00
2022-10-25T16:27:12.296Z,99879.97
2022-10-25T16:29:40.037Z,99863.56
2022-10-25T16:32:07.737Z,99871.16
2022-10-25T16:34:35.429Z,99869.31
2022-10-25T16:37:05.488Z,99870.09
2022-10-25T16:39:36.745Z,99863.94
2022-10-25T16:42:06.832Z,99858.56
2022-10-25T16:44:35.012Z,99862.00
2022-10-25T16:47:02.802Z,99858.66
2022-10-25T16:49:32.585Z,99860.03
2022-10-25T16:52:00.266Z,99872.72
2022-10-25T16:54:27.914Z,99874.44
2022-10-25T16:56:56.876Z,99874.44
2022-10-25T16:59:24.531Z,99868.03
2022-10-25T17:01:55.915Z,99863.25
2022-10-25T17:04:24.384Z,99857.69
2022-10-25T17:06:52.425Z,99860.88
2022-10-25T17:09:20.344Z,99865.31
2022-10-25T17:11:48.061Z,99867.41
2022-10-25T17:14:17.148Z,99862.09
2022-10-25T17:16:45.564Z,99855.13
2022-10-25T17:19:14.597Z,99858.72
2022-10-25T17:21:42.383Z,99859.50
2022-10-25T17:24:10.396Z,99859.56
2022-10-25T17:26:39.180Z,99851.19
2022-10-25T17:29:06.941Z,99846.59
2022-10-25T17:31:36.359Z,99843.97
2022-10-25T17:34:04.895Z,99847.00
2022-10-25T17:36:32.913Z,99835.50
2022-10-25T17:39:01.200Z,99842.31
2022-10-25T17:41:28.897Z,99845.72
2022-10-25T17:43:57.225Z,99845.00
2022-10-25T17:46:27.653Z,99835.56
2022-10-25T17:49:01.809Z,99833.28
2022-10-25T17:51:30.857Z,99832.06
2022-10-25T17:53:58.721Z,99839.63
2022-10-25T17:56:27.915Z,99849.56
2022-10-25T17:58:56.893Z,99834.50
2022-10-25T18:01:26.416Z,99837.72
2022-10-25T18:03:56.072Z,99839.00
2022-10-25T18:06:25.385Z,99837.72
2022-10-25T18:08:54.335Z,99850.31
2022-10-25T18:11:23.518Z,99850.66
2022-10-25T18:13:51.820Z,99845.78
2022-10-25T18:16:21.808Z,99852.22
2022-10-25T18:37:04.365Z,99864.84
2022-10-25T18:40:00.202Z,99856.03
2022-10-25T18:43:00.737Z,99855.44
2022-10-25T18:46:22.761Z,99848.75
2022-10-25T18:49:30.599Z,99841.16
2022-10-25T18:52:17.471Z,99844.72
2022-10-25T19:36:10.186Z,99829.63
2022-10-25T19:38:39.564Z,99838.31
2022-10-25T19:41:10.444Z,99836.31
2022-10-25T19:43:38.145Z,99837.13
2022-10-25T19:46:08.010Z,99838.31
2022-10-25T19:48:36.322Z,99833.16
2022-10-25T19:51:10.216Z,99822.22
2022-10-25T19:53:38.470Z,99820.41
2022-10-25T19:56:08.401Z,99816.38
2022-10-25T19:58:36.761Z,99815.16
2022-10-25T20:01:07.155Z,99812.03
2022-10-25T20:03:35.749Z,99813.19
2022-10-25T20:06:06.782Z,99809.72
2022-10-25T20:08:37.825Z,99806.78
2022-10-25T20:11:06.731Z,99811.09
2022-10-25T20:13:34.472Z,99805.59
2022-10-25T20:16:02.117Z,99815.56
2022-10-25T20:18:31.893Z,99808.78
2022-10-25T20:21:01.800Z,99808.59
2022-10-25T20:23:29.929Z,99801.59
2022-10-25T20:25:59.141Z,99801.06
2022-10-25T20:28:26.851Z,99801.31
2022-10-25T20:30:54.393Z,99797.53
2022-10-25T20:33:21.909Z,99790.94
2022-10-25T20:35:49.486Z,99802.38
2022-10-25T20:38:17.138Z,99805.03
2022-10-25T20:40:45.197Z,99796.94
2022-10-25T20:43:14.087Z,99796.56
2022-10-25T20:45:43.954Z,99791.44
2022-10-25T20:48:11.487Z,99793.13
2022-10-25T20:50:39.023Z,99794.28
2022-10-25T20:53:10.118Z,99793.50
2022-10-25T20:55:38.674Z,99791.19
2022-10-25T20:58:06.297Z,99795.97
2022-10-25T21:00:35.198Z,99787.03
2022-10-25T21:03:02.751Z,99789.84
2022-10-25T21:05:31.522Z,99789.34
2022-10-25T21:07:59.143Z,99787.38
2022-10-25T21:10:26.743Z,99786.38
2022-10-25T21:12:54.277Z,99788.88
2022-10-25T21:15:21.834Z,99778.47
2022-10-25T21:17:51.187Z,99777.75
2022-10-25T21:20:19.024Z,99781.72
2022-10-25T21:22:47.750Z,99782.53
2022-10-25T21:25:15.918Z,99776.94
2022-10-25T21:27:43.535Z,99779.59
2022-10-25T21:30:11.798Z,99783.59
2022-10-25T21:32:39.377Z,99780.06
2022-10-25T21:35:09.230Z,99783.72
2022-10-25T21:37:36.787Z,99780.94
2022-10-25T21:40:04.767Z,99777.63
2022-10-25T21:42:32.805Z,99780.94
2022-10-25T21:45:00.677Z,99778.41
2022-10-25T21:47:28.274Z,99781.25
2022-10-25T21:49:56.823Z,99783.88
2022-10-25T21:52:25.817Z,99785.19
2022-10-25T21:54:53.380Z,99784.56
2022-10-25T21:57:21.038Z,99783.34
2022-10-25T21:59:48.554Z,99779.88
2022-10-25T22:02:16.338Z,99774.91
2022-10-25T22:04:44.276Z,99769.94
2022-10-25T22:07:11.930Z,99766.63
2022-10-25T22:09:40.910Z,99763.94
2022-10-25T22:12:08.554Z,99760.44
2022-10-25T22:14:36.200Z,99755.94
2022-10-25T22:17:03.930Z,99754.94
2022-10-25T22:19:31.815Z,99755.28
2022-10-25T22:21:59.353Z,99744.94
2022-10-25T22:24:26.869Z,99740.03
2022-10-25T22:26:55.741Z,99751.91
2022-10-25T22:29:23.357Z,99744.06
2022-10-25T22:31:50.889Z,99742.63
2022-10-25T22:34:18.426Z,99733.53
2022-10-25T22:36:45.945Z,99738.03
2022-10-25T22:39:13.461Z,99730.81
2022-10-25T22:41:40.977Z,99728.03
2022-10-25T22:44:10.038Z,99732.19
2022-10-25T22:46:37.774Z,99735.00
2022-10-25T22:49:07.602Z,99739.75
2022-10-25T22:51:36.111Z,99741.59
2022-10-25T22:54:03.706Z,99742.72
2022-10-25T22:56:32.209Z,99733.78
2022-10-25T22:59:01.401Z,99727.25
2022-10-25T23:01:32.765Z,99731.25
2022-10-25T23:04:01.411Z,99740.28
2022-10-25T23:06:30.979Z,99732.22
2022-10-25T23:09:00.185Z,99727.81
2022-10-25T23:11:29.806Z,99729.81
2022-10-25T23:13:57.561Z,99741.09
2022-10-25T23:16:26.101Z,99731.22
2022-10-25T23:18:55.387Z,99722.91
2022-10-25T23:21:25.040Z,99731.69
2022-10-25T23:23:54.115Z,99725.81
2022-10-25T23:26:24.205Z,99726.00
2022-10-25T23:28:52.187Z,99732.47
2022-10-25T23:31:20.144Z,99723.56
2022-10-25T23:33:51.900Z,99729.97
2022-10-25T23:36:23.706Z,99735.28
2022-10-25T23:38:52.486Z,99733.56
2022-10-25T23:41:21.389Z,99727.16
2022-10-25T23:43:49.737Z,99732.63
2022-10-25T23:46:17.268Z,99726.47
2022-10-25T23:48:44.829Z,99718.03
2022-10-25T23:51:14.413Z,99715.22
2022-10-25T23:53:43.809Z,99710.84
2022-10-25T23:56:13.077Z,99715.25
2022-10-25T23:58:40.775Z,99725.13
